Time;durP1;ratioP1;P1;durP2;ratioP2;P2;SDS_P1;SDS_P2;PMS_P1;PMS_P2;Temp;Humidity;BMP_temperature;BMP_pressure;BME280_temperature;BME280_humidity;BME280_pressure;Samples;Min_cycle;Max_cycle;Signal;HPM_P1;HPM_P2
2023/05/05 00:00:54;;;;;;;17.02;15.15;;;17.60;5.50;;;;;;5074163;28;20248;-69
2023/05/05 00:03:20;;;;;;;18.70;16.73;;;17.60;7.60;;;;;;5073707;28;20223;-69
2023/05/05 00:05:47;;;;;;;17.77;15.97;;;17.60;9.50;;;;;;5074035;28;20171;-68
2023/05/05 00:08:12;;;;;;;17.10;15.43;;;17.50;9.80;;;;;;5073911;28;20173;-68
2023/05/05 00:10:38;;;;;;;18.03;15.00;;;17.50;12.60;;;;;;5074046;28;20215;-69
2023/05/05 00:13:04;;;;;;;16.47;14.80;;;17.40;16.00;;;;;;5074096;28;20651;-69
2023/05/05 00:15:29;;;;;;;14.77;13.27;;;17.50;14.20;;;;;;5072933;28;20196;-68
2023/05/05 00:17:55;;;;;;;16.42;13.20;;;17.40;8.20;;;;;;5073125;28;20520;-68
2023/05/05 00:20:21;;;;;;;13.67;12.27;;;17.30;10.80;;;;;;5055845;28;20255;-70
2023/05/05 00:22:47;;;;;;;13.03;11.73;;;17.20;11.80;;;;;;5073910;28;20168;-68
2023/05/05 00:25:13;;;;;;;13.03;11.67;;;17.00;15.20;;;;;;5073691;28;20287;-69
2023/05/05 00:27:39;;;;;;;13.47;11.77;;;16.90;20.30;;;;;;5073793;28;20193;-69
2023/05/05 00:30:05;;;;;;;13.37;12.03;;;16.80;21.00;;;;;;5073407;28;20212;-68
2023/05/05 00:32:31;;;;;;;13.37;11.33;;;16.70;29.40;;;;;;5073345;28;20620;-68
2023/05/05 00:34:56;;;;;;;13.80;12.37;;;16.70;29.90;;;;;;5073415;28;20225;-68
2023/05/05 00:37:22;;;;;;;17.33;15.63;;;16.70;30.20;;;;;;5073222;28;20186;-69
2023/05/05 00:39:47;;;;;;;19.07;17.07;;;16.70;37.50;;;;;;5055572;28;20591;-69
2023/05/05 00:42:13;;;;;;;18.17;16.37;;;16.70;43.90;;;;;;5055554;28;20214;-70
2023/05/05 00:44:40;;;;;;;15.87;14.23;;;16.60;45.70;;;;;;5073397;28;20504;-70
2023/05/05 00:47:09;;;;;;;21.77;19.40;;;16.60;50.50;;;;;;5073178;28;20165;-69
2023/05/05 00:49:36;;;;;;;21.87;18.53;;;16.60;58.90;;;;;;5073202;28;20706;-69
2023/05/05 00:52:03;;;;;;;20.77;18.63;;;16.60;59.90;;;;;;5073297;28;20214;-69
2023/05/05 00:54:29;;;;;;;21.17;17.47;;;16.60;67.10;;;;;;5073385;28;20234;-70
2023/05/05 00:56:55;;;;;;;15.37;13.67;;;16.50;72.10;;;;;;5073359;28;20683;-69
2023/05/05 00:59:21;;;;;;;14.67;13.07;;;16.50;73.90;;;;;;5073219;28;20164;-69
2023/05/05 01:01:47;;;;;;;13.30;12.03;;;16.40;71.20;;;;;;5072863;28;20651;-69
2023/05/05 01:04:12;;;;;;;12.87;11.57;;;16.30;71.00;;;;;;5072917;28;20165;-68
2023/05/05 01:06:46;;;;;;;12.80;11.60;;;16.30;71.40;;;;;;5055005;28;20164;-68
2023/05/05 01:09:30;;;;;;;12.17;10.97;;;16.30;68.40;;;;;;5073000;28;20196;-69
2023/05/05 01:12:06;;;;;;;11.03;9.90;;;16.20;64.90;;;;;;5054918;28;20317;-69
2023/05/05 01:14:35;;;;;;;10.30;9.20;;;16.20;62.60;;;;;;5073028;28;20647;-69
2023/05/05 01:17:25;;;;;;;9.40;8.47;;;16.20;60.50;;;;;;5072594;28;20169;-69
2023/05/05 01:20:15;;;;;;;8.67;7.83;;;16.20;56.70;;;;;;5049122;28;20228;-69
2023/05/05 01:22:49;;;;;;;12.77;6.77;;;16.10;55.10;;;;;;5053024;28;20625;-69
2023/05/05 01:25:48;;;;;;;6.50;5.90;;;16.10;53.20;;;;;;5052905;28;20184;-69
2023/05/05 01:28:26;;;;;;;6.73;5.27;;;16.00;51.80;;;;;;5056636;28;20204;-69
2023/05/05 01:31:19;;;;;;;5.33;4.93;;;15.90;52.30;;;;;;5056460;28;20243;-69
2023/05/05 01:33:51;;;;;;;5.20;4.83;;;15.90;52.30;;;;;;5056938;28;20256;-70
2023/05/05 01:36:31;;;;;;;4.53;4.23;;;15.80;49.60;;;;;;5056976;28;20200;-69
2023/05/05 01:39:00;;;;;;;4.73;3.90;;;15.80;48.60;;;;;;5056671;28;20168;-69
2023/05/05 01:41:32;;;;;;;5.73;3.80;;;15.80;45.40;;;;;;5056832;28;20169;-69
2023/05/05 01:44:01;;;;;;;4.27;3.87;;;15.70;46.60;;;;;;5056720;28;20264;-69
2023/05/05 01:46:29;;;;;;;3.80;3.50;;;15.70;48.00;;;;;;5056167;28;20527;-69
2023/05/05 01:48:57;;;;;;;4.30;4.00;;;15.70;48.10;;;;;;5056546;28;20193;-70
2023/05/05 01:51:25;;;;;;;4.57;3.60;;;15.70;48.20;;;;;;5056478;28;20177;-70
2023/05/05 01:53:53;;;;;;;4.67;4.27;;;15.60;50.50;;;;;;5056569;28;20177;-70
2023/05/05 01:56:22;;;;;;;5.20;4.80;;;15.60;52.10;;;;;;5056819;28;20588;-70
2023/05/05 01:58:49;;;;;;;5.23;4.83;;;15.60;52.70;;;;;;5056413;28;20192;-70
2023/05/05 02:01:17;;;;;;;6.63;4.90;;;15.60;55.10;;;;;;5056418;28;20219;-69
2023/05/05 02:03:46;;;;;;;5.70;4.87;;;15.60;56.60;;;;;;5056132;28;20188;-70
2023/05/05 02:06:13;;;;;;;6.03;5.43;;;15.60;55.90;;;;;;5056229;28;20173;-69
2023/05/05 02:08:41;;;;;;;5.93;5.27;;;15.60;56.40;;;;;;5056158;28;20192;-70
2023/05/05 02:11:09;;;;;;;5.23;4.83;;;15.60;60.80;;;;;;5056357;28;20188;-68
2023/05/05 02:13:36;;;;;;;5.73;5.30;;;15.50;67.30;;;;;;5055808;28;20192;-69
2023/05/05 02:16:04;;;;;;;6.13;5.53;;;15.40;71.80;;;;;;5054869;28;20314;-69
2023/05/05 02:18:34;;;;;;;6.10;5.50;;;15.40;78.00;;;;;;5054412;28;20225;-68
2023/05/05 02:21:00;;;;;;;5.40;4.90;;;15.40;81.60;;;;;;5054757;28;20288;-68
2023/05/05 02:23:26;;;;;;;6.03;5.43;;;15.40;81.40;;;;;;5056278;28;20169;-68
2023/05/05 02:25:58;;;;;;;5.23;4.70;;;15.40;83.20;;;;;;5055905;28;20184;-68
2023/05/05 02:28:43;;;;;;;6.40;5.80;;;15.40;85.50;;;;;;5054221;28;20169;-68
2023/05/05 02:31:11;;;;;;;5.90;5.40;;;15.40;87.10;;;;;;5055673;28;20188;-69
2023/05/05 02:33:38;;;;;;;5.57;5.17;;;15.40;85.60;;;;;;5055841;28;20169;-69
2023/05/05 02:36:13;;;;;;;6.10;5.50;;;15.30;87.60;;;;;;5055770;28;20184;-68
2023/05/05 02:38:42;;;;;;;5.93;5.43;;;15.30;89.50;;;;;;5055175;28;20255;-68
2023/05/05 02:41:12;;;;;;;6.27;5.77;;;15.30;92.20;;;;;;5055299;28;20168;-69
2023/05/05 02:43:41;;;;;;;6.63;5.90;;;15.30;93.70;;;;;;5055050;28;20173;-68
2023/05/05 02:46:07;;;;;;;7.20;6.50;;;15.30;93.70;;;;;;5055718;28;20499;-69
2023/05/05 02:48:32;;;;;;;7.30;6.43;;;15.20;96.80;;;;;;5055163;28;20178;-68
2023/05/05 02:50:58;;;;;;;7.10;6.43;;;15.10;98.60;;;;;;5055342;28;20557;-69
2023/05/05 02:53:25;;;;;;;6.90;6.40;;;15.10;99.90;;;;;;5055343;28;20161;-69
2023/05/05 02:55:55;;;;;;;8.60;6.83;;;15.00;99.90;;;;;;5055007;28;20175;-69
2023/05/05 02:58:30;;;;;;;7.70;6.77;;;15.00;99.90;;;;;;5054539;28;20590;-69
2023/05/05 03:01:14;;;;;;;7.50;6.80;;;14.90;99.90;;;;;;5055257;28;20176;-69
2023/05/05 03:03:50;;;;;;;17.17;7.53;;;14.90;99.90;;;;;;5055017;28;20204;-69
2023/05/05 03:06:18;;;;;;;7.97;7.27;;;14.90;99.90;;;;;;5054878;28;20169;-69
2023/05/05 03:09:01;;;;;;;7.27;6.67;;;14.90;99.90;;;;;;5053533;28;20181;-69
2023/05/05 03:11:31;;;;;;;8.13;7.33;;;14.80;99.90;;;;;;5054502;28;20261;-69
2023/05/05 03:14:08;;;;;;;7.33;6.63;;;14.90;99.90;;;;;;5055045;28;20173;-69
2023/05/05 03:16:35;;;;;;;8.20;7.37;;;14.80;99.90;;;;;;5054741;28;20212;-69
2023/05/05 03:19:03;;;;;;;11.37;7.80;;;14.90;99.90;;;;;;5064993;28;20224;-69
2023/05/05 03:21:30;;;;;;;9.20;7.83;;;15.00;99.90;;;;;;5074612;28;20197;-70
2023/05/05 03:23:57;;;;;;;9.33;8.23;;;14.90;99.90;;;;;;5074761;28;20172;-69
2023/05/05 03:26:23;;;;;;;12.10;8.90;;;15.00;99.90;;;;;;5074632;28;20176;-69
2023/05/05 03:28:49;;;;;;;15.73;9.50;;;15.00;99.90;;;;;;5074349;28;20176;-69
2023/05/05 03:31:16;;;;;;;10.17;9.27;;;14.90;99.90;;;;;;5074419;28;20652;-69
2023/05/05 03:33:42;;;;;;;9.67;8.67;;;15.00;99.90;;;;;;5074169;28;20173;-70
2023/05/05 03:36:08;;;;;;;9.87;8.97;;;15.00;99.90;;;;;;5074497;28;20167;-69
2023/05/05 03:38:33;;;;;;;9.77;8.77;;;15.00;99.90;;;;;;5074503;28;20168;-69
2023/05/05 03:41:02;;;;;;;10.27;9.17;;;15.00;99.90;;;;;;5073968;28;20180;-69
2023/05/05 03:43:28;;;;;;;10.27;9.27;;;14.90;99.90;;;;;;5074087;28;20177;-69
2023/05/05 03:45:54;;;;;;;9.20;8.30;;;14.90;99.90;;;;;;5073738;28;20177;-70
2023/05/05 03:48:19;;;;;;;11.80;9.60;;;14.80;99.90;;;;;;5074110;28;20175;-69
2023/05/05 03:50:45;;;;;;;10.40;9.30;;;14.80;99.90;;;;;;5073240;28;20216;-69
2023/05/05 03:53:10;;;;;;;10.87;9.00;;;14.80;99.90;;;;;;5074158;28;20564;-69
2023/05/05 03:55:36;;;;;;;9.97;8.97;;;14.80;99.90;;;;;;5073040;28;20556;-69
2023/05/05 03:58:02;;;;;;;11.07;9.93;;;14.70;99.90;;;;;;5073684;28;20165;-68
2023/05/05 04:00:28;;;;;;;12.70;9.10;;;14.70;99.90;;;;;;5073901;28;20169;-69
2023/05/05 04:02:53;;;;;;;16.83;10.60;;;14.60;99.90;;;;;;5073634;28;20172;-70
2023/05/05 04:05:21;;;;;;;12.07;9.50;;;14.60;99.90;;;;;;5055550;28;20168;-69
2023/05/05 04:07:47;;;;;;;12.23;9.50;;;14.50;99.90;;;;;;5073553;28;20673;-70
2023/05/05 04:10:12;;;;;;;12.40;10.10;;;14.50;99.90;;;;;;5072936;28;20208;-71
2023/05/05 04:12:38;;;;;;;11.87;9.60;;;14.50;99.90;;;;;;5073546;28;20165;-70
2023/05/05 04:15:04;;;;;;;23.13;9.93;;;14.50;99.90;;;;;;5073635;28;20172;-70
2023/05/05 04:17:30;;;;;;;11.30;9.33;;;14.50;99.90;;;;;;5073410;28;20179;-70
2023/05/05 04:19:55;;;;;;;13.47;10.03;;;14.50;99.90;;;;;;5072850;28;20232;-70
2023/05/05 04:22:21;;;;;;;18.73;11.10;;;14.50;99.90;;;;;;5054928;28;20636;-70
2023/05/05 04:24:47;;;;;;;15.03;10.30;;;14.60;99.90;;;;;;5073174;28;20168;-70
2023/05/05 04:27:12;;;;;;;10.87;9.70;;;14.80;99.90;;;;;;5073271;28;20624;-70
2023/05/05 04:29:38;;;;;;;15.43;10.43;;;15.20;99.90;;;;;;5072957;28;20737;-69
2023/05/05 04:32:04;;;;;;;12.57;9.43;;;15.50;99.90;;;;;;5073060;28;20161;-70
2023/05/05 04:34:29;;;;;;;12.00;9.43;;;16.00;99.90;;;;;;5072387;28;20187;-70
2023/05/05 04:36:55;;;;;;;11.03;8.83;;;16.60;99.90;;;;;;5073293;28;20173;-70
2023/05/05 04:39:20;;;;;;;35.23;11.10;;;17.40;72.10;;;;;;5072506;28;20664;-70
2023/05/05 04:41:46;;;;;;;12.40;8.83;;;17.70;33.80;;;;;;5054962;28;20225;-70
2023/05/05 04:44:12;;;;;;;9.70;8.70;;;17.70;17.20;;;;;;5071967;28;20215;-69
2023/05/05 04:46:37;;;;;;;9.83;8.60;;;17.60;12.30;;;;;;5073020;28;20195;-69
2023/05/05 04:49:04;;;;;;;14.30;9.20;;;17.30;22.00;;;;;;5072777;28;20665;-69
2023/05/05 04:51:31;;;;;;;11.60;9.00;;;17.00;30.00;;;;;;5072544;28;20260;-69
2023/05/05 04:53:57;;;;;;;9.60;8.50;;;16.70;44.80;;;;;;5071961;28;20270;-70
2023/05/05 04:56:22;;;;;;;10.97;9.20;;;16.90;49.90;;;;;;5072613;28;20171;-70
2023/05/05 04:58:49;;;;;;;11.87;9.43;;;17.10;39.20;;;;;;5072533;28;20165;-71
2023/05/05 05:01:15;;;;;;;14.60;9.20;;;17.10;37.90;;;;;;5072371;28;20282;-71
2023/05/05 05:03:40;;;;;;;15.77;10.10;;;17.30;30.30;;;;;;5072720;28;20204;-70
2023/05/05 05:06:06;;;;;;;10.77;9.33;;;17.40;26.80;;;;;;5054841;28;20199;-71
2023/05/05 05:08:32;;;;;;;10.00;8.87;;;18.00;20.80;;;;;;5072307;28;20628;-71
2023/05/05 05:10:58;;;;;;;11.02;9.15;;;18.80;1.00;;;;;;5053939;28;20706;-70
2023/05/05 05:13:24;;;;;;;11.18;8.07;;;20.00;1.00;;;;;;5053978;28;20252;-71
2023/05/05 05:15:50;;;;;;;11.23;7.95;;;21.10;1.00;;;;;;5054833;28;20185;-72
2023/05/05 05:18:16;;;;;;;11.27;7.80;;;21.70;1.00;;;;;;5050817;28;20225;-71
2023/05/05 05:20:41;;;;;;;9.80;7.82;;;22.40;99.90;;;;;;5051972;28;20189;-71
2023/05/05 05:23:07;;;;;;;9.52;8.38;;;23.30;1.00;;;;;;5051856;28;20169;-71
2023/05/05 05:25:33;;;;;;;13.70;7.68;;;22.70;1.00;;;;;;5051799;28;20180;-71
2023/05/05 05:27:58;;;;;;;12.13;8.10;;;22.30;99.90;;;;;;5052215;28;20636;-72
2023/05/05 05:30:24;;;;;;;11.65;7.88;;;22.90;1.00;;;;;;5051801;28;20208;-71
2023/05/05 05:32:49;;;;;;;13.70;7.38;;;23.10;34.30;;;;;;5051994;28;20211;-72
2023/05/05 05:35:15;;;;;;;9.75;7.30;;;23.20;1.00;;;;;;5052144;28;20236;-71
2023/05/05 05:37:41;;;;;;;10.70;7.90;;;22.60;1.00;;;;;;5051850;28;20692;-70
2023/05/05 05:40:07;;;;;;;11.38;8.10;;;21.30;1.00;;;;;;5052274;28;20656;-70
2023/05/05 05:42:33;;;;;;;10.13;7.80;;;20.80;1.00;;;;;;5051642;28;20260;-70
2023/05/05 05:44:58;;;;;;;13.70;8.63;;;20.00;1.00;;;;;;5051873;28;20252;-70
2023/05/05 05:47:24;;;;;;;12.52;8.65;;;19.50;1.00;;;;;;5050790;28;20170;-70
2023/05/05 05:49:50;;;;;;;8.88;7.70;;;19.20;1.00;;;;;;5051461;28;20205;-70
2023/05/05 05:52:16;;;;;;;13.98;8.65;;;18.90;1.00;;;;;;5051080;28;20172;-70
2023/05/05 05:54:41;;;;;;;10.05;7.50;;;18.60;1.00;;;;;;5052321;28;20559;-70
2023/05/05 05:57:07;;;;;;;11.32;8.50;;;18.60;1.00;;;;;;5051180;28;20169;-71
2023/05/05 05:59:33;;;;;;;9.43;8.27;;;18.50;1.00;;;;;;5051703;28;20250;-71
2023/05/05 06:01:58;;;;;;;9.25;8.35;;;18.10;1.00;;;;;;5050358;28;20905;-71
2023/05/05 06:04:24;;;;;;;14.15;9.00;;;17.90;6.50;;;;;;5051870;28;20629;-70
2023/05/05 06:06:50;;;;;;;13.15;8.60;;;17.90;9.80;;;;;;5050892;28;20609;-71
2023/05/05 06:09:16;;;;;;;11.88;9.13;;;17.90;8.60;;;;;;5051776;28;20290;-70
2023/05/05 06:11:41;;;;;;;17.95;9.55;;;17.90;9.70;;;;;;5051166;28;20192;-70
2023/05/05 06:14:07;;;;;;;12.00;8.82;;;17.70;13.70;;;;;;5054995;28;20184;-69
2023/05/05 06:16:32;;;;;;;10.73;8.20;;;17.70;17.00;;;;;;5053671;28;20177;-69
2023/05/05 06:18:58;;;;;;;16.35;8.20;;;17.60;16.20;;;;;;5064911;28;20325;-69
2023/05/05 06:21:24;;;;;;;8.43;7.65;;;17.60;22.20;;;;;;5074544;28;20196;-71
2023/05/05 06:23:49;;;;;;;13.55;8.23;;;17.80;17.40;;;;;;5075357;28;20173;-71
2023/05/05 06:26:15;;;;;;;11.00;8.32;;;17.70;11.50;;;;;;5074781;28;20214;-69
2023/05/05 06:28:41;;;;;;;14.07;8.75;;;17.70;16.60;;;;;;5075085;28;20176;-70
2023/05/05 06:31:07;;;;;;;10.73;7.70;;;17.60;17.60;;;;;;5075217;28;20212;-72
2023/05/05 06:33:32;;;;;;;10.15;8.02;;;17.60;21.30;;;;;;5056627;28;20187;-71
2023/05/05 06:35:58;;;;;;;9.93;7.50;;;17.70;19.60;;;;;;5074772;28;20176;-71
2023/05/05 06:38:23;;;;;;;10.13;7.72;;;17.90;18.80;;;;;;5074437;28;20255;-71
2023/05/05 06:40:49;;;;;;;13.57;8.32;;;18.20;6.00;;;;;;5074322;28;20222;-71
2023/05/05 06:43:15;;;;;;;10.50;8.02;;;18.70;1.00;;;;;;5074696;28;20176;-71
2023/05/05 06:45:41;;;;;;;9.52;7.35;;;19.30;1.00;;;;;;5074836;28;20215;-71
2023/05/05 06:48:07;;;;;;;12.38;7.68;;;19.40;1.00;;;;;;5074670;28;20705;-71
2023/05/05 06:50:32;;;;;;;9.65;7.20;;;19.50;1.00;;;;;;5074175;28;20725;-72
2023/05/05 06:52:58;;;;;;;13.05;7.50;;;19.80;1.00;;;;;;5074529;28;20179;-72
2023/05/05 06:55:24;;;;;;;13.80;7.50;;;20.60;1.00;;;;;;5074211;28;20636;-72
2023/05/05 06:57:49;;;;;;;12.95;7.50;;;21.10;1.00;;;;;;5056596;28;20610;-71
2023/05/05 07:00:16;;;;;;;12.80;7.32;;;21.40;1.00;;;;;;5056136;28;20620;-71
2023/05/05 07:02:42;;;;;;;11.38;7.22;;;21.60;1.00;;;;;;5074863;28;20177;-71
2023/05/05 07:05:08;;;;;;;14.18;9.13;;;21.70;1.00;;;;;;5074224;28;20668;-70
2023/05/05 07:07:34;;;;;;;11.93;7.22;;;22.40;1.00;;;;;;5074454;28;20169;-72
2023/05/05 07:10:00;;;;;;;13.60;6.80;;;22.50;99.90;;;;;;5074287;28;20351;-72
2023/05/05 07:12:29;;;;;;;8.48;6.53;;;23.00;1.00;;;;;;5074392;28;20255;-73
2023/05/05 07:14:56;;;;;;;9.73;6.43;;;23.40;67.90;;;;;;5073849;28;20173;-72
2023/05/05 07:17:22;;;;;;;11.45;6.03;;;23.50;99.90;;;;;;5056614;28;20226;-72
2023/05/05 07:19:48;;;;;;;10.57;6.20;;;23.50;1.00;;;;;;5055709;28;20232;-72
2023/05/05 07:22:13;;;;;;;11.32;6.15;;;23.30;99.90;;;;;;5056447;28;20263;-71
2023/05/05 07:24:39;;;;;;;9.57;5.38;;;23.30;1.00;;;;;;5074031;28;20164;-71
2023/05/05 07:27:06;;;;;;;15.45;7.47;;;23.00;1.00;;;;;;5074140;28;20581;-72
2023/05/05 07:29:31;;;;;;;14.15;6.82;;;22.80;1.00;;;;;;5072947;28;20200;-70
2023/05/05 07:31:57;;;;;;;7.95;6.40;;;23.00;99.90;;;;;;5074004;28;20511;-70
2023/05/05 07:34:22;;;;;;;10.38;6.47;;;22.40;57.20;;;;;;5073175;28;20179;-70
2023/05/05 07:36:48;;;;;;;9.45;6.00;;;22.30;99.90;;;;;;5073307;28;20187;-71
2023/05/05 07:39:14;;;;;;;7.13;6.38;;;21.90;99.90;;;;;;5073163;28;20167;-70
2023/05/05 07:41:41;;;;;;;6.95;6.03;;;21.60;1.00;;;;;;5073508;28;20251;-70
2023/05/05 07:44:07;;;;;;;9.43;6.70;;;21.30;1.00;;;;;;5072531;28;20165;-71
2023/05/05 07:46:32;;;;;;;9.98;6.72;;;21.10;1.00;;;;;;5073460;28;20234;-69
2023/05/05 07:48:58;;;;;;;12.80;6.75;;;21.10;1.00;;;;;;5073284;28;20168;-70
2023/05/05 07:51:23;;;;;;;11.77;6.78;;;21.00;1.00;;;;;;5072501;28;20176;-70
2023/05/05 07:53:49;;;;;;;12.77;6.57;;;21.00;1.00;;;;;;5072663;28;20559;-71
2023/05/05 07:56:15;;;;;;;9.20;6.47;;;21.20;1.00;;;;;;5073727;28;20172;-71
2023/05/05 07:58:41;;;;;;;8.00;6.28;;;21.10;1.00;;;;;;5073522;28;20662;-71
2023/05/05 08:01:09;;;;;;;11.25;6.20;;;20.80;1.00;;;;;;5054966;28;20276;-70
2023/05/05 08:03:35;;;;;;;14.57;6.55;;;20.70;1.00;;;;;;5073059;28;20172;-70
2023/05/05 08:06:08;;;;;;;11.18;5.82;;;20.80;1.00;;;;;;5072427;28;20628;-70
2023/05/05 08:08:34;;;;;;;8.80;5.80;;;20.60;1.00;;;;;;5054516;28;20176;-71
2023/05/05 08:11:00;;;;;;;13.07;6.25;;;20.20;1.00;;;;;;5072213;28;20675;-71
2023/05/05 08:13:27;;;;;;;12.60;6.63;;;20.10;1.00;;;;;;5054743;28;20177;-70
2023/05/05 08:15:53;;;;;;;9.70;5.68;;;20.00;1.00;;;;;;5071230;28;20255;-71
2023/05/05 08:18:18;;;;;;;7.75;6.03;;;20.00;1.00;;;;;;5071327;28;20382;-71
2023/05/05 08:20:44;;;;;;;10.27;6.18;;;19.90;1.00;;;;;;5071317;28;20306;-72
2023/05/05 08:23:10;;;;;;;9.82;5.88;;;19.70;1.00;;;;;;5071297;28;20658;-72
2023/05/05 08:25:35;;;;;;;9.43;4.90;;;19.70;1.00;;;;;;5071824;28;20665;-71
2023/05/05 08:28:01;;;;;;;7.88;5.25;;;19.90;1.00;;;;;;5072814;28;20175;-71
2023/05/05 08:30:27;;;;;;;13.52;5.70;;;20.30;1.00;;;;;;5071513;28;20204;-72
2023/05/05 08:32:53;;;;;;;11.05;5.05;;;20.30;1.00;;;;;;5071324;28;20180;-71
2023/05/05 08:35:18;;;;;;;9.48;5.88;;;20.30;1.00;;;;;;5052944;28;20183;-71
2023/05/05 08:37:47;;;;;;;12.80;6.50;;;20.50;1.00;;;;;;5071433;28;20200;-71
2023/05/05 08:40:13;;;;;;;13.25;6.10;;;20.60;1.00;;;;;;5071689;28;20222;-72
2023/05/05 08:42:40;;;;;;;9.52;6.15;;;20.60;1.00;;;;;;5071543;28;20173;-70
2023/05/05 08:45:08;;;;;;;10.23;6.70;;;20.40;1.00;;;;;;5071846;28;20256;-71
2023/05/05 08:47:35;;;;;;;11.65;5.75;;;20.30;1.00;;;;;;5072187;28;20179;-71
2023/05/05 08:50:01;;;;;;;9.52;6.95;;;20.20;1.00;;;;;;5072313;28;20212;-70
2023/05/05 08:52:32;;;;;;;8.93;6.60;;;19.70;1.00;;;;;;5072144;28;20172;-70
2023/05/05 08:55:11;;;;;;;10.40;7.60;;;19.20;17.40;;;;;;5072168;28;20270;-71
2023/05/05 08:57:56;;;;;;;8.18;7.15;;;19.20;28.90;;;;;;5072239;28;20481;-70
2023/05/05 09:00:22;;;;;;;10.95;8.27;;;19.30;20.60;;;;;;5053601;28;20267;-69
2023/05/05 09:02:48;;;;;;;12.25;8.82;;;19.30;21.40;;;;;;5053747;28;20191;-71
2023/05/05 09:05:14;;;;;;;13.85;8.80;;;19.20;25.10;;;;;;5072255;28;20651;-71
2023/05/05 09:07:42;;;;;;;12.00;9.52;;;19.40;23.90;;;;;;5072054;28;20165;-71
2023/05/05 09:10:09;;;;;;;11.07;9.98;;;19.60;20.60;;;;;;5072225;28;20208;-71
2023/05/05 09:12:39;;;;;;;15.98;10.52;;;19.40;13.10;;;;;;5071999;28;20177;-71
2023/05/05 09:15:10;;;;;;;14.00;10.52;;;19.10;25.10;;;;;;5071941;28;20230;-71
2023/05/05 09:17:36;;;;;;;11.73;10.05;;;19.00;19.80;;;;;;5072171;28;20200;-71
2023/05/05 09:20:05;;;;;;;13.38;9.88;;;19.30;14.50;;;;;;5071883;28;20232;-71
2023/05/05 09:22:32;;;;;;;11.73;10.48;;;19.50;13.30;;;;;;5071528;28;20160;-70
2023/05/05 09:24:58;;;;;;;11.20;10.10;;;19.40;3.40;;;;;;5072031;28;20165;-70
2023/05/05 09:27:23;;;;;;;11.52;9.85;;;19.50;1.50;;;;;;5072653;28;20183;-70
2023/05/05 09:29:49;;;;;;;12.50;9.38;;;19.30;4.60;;;;;;5071930;28;20290;-70
2023/05/05 09:32:17;;;;;;;11.73;8.95;;;19.20;1.00;;;;;;5053771;28;20164;-70
2023/05/05 09:34:55;;;;;;;12.98;8.52;;;18.90;10.80;;;;;;5072060;28;20173;-71
2023/05/05 09:37:28;;;;;;;9.30;7.10;;;19.00;9.20;;;;;;5072333;28;20169;-70
2023/05/05 09:39:54;;;;;;;11.40;7.18;;;19.00;1.00;;;;;;5072226;28;20172;-71
2023/05/05 09:42:19;;;;;;;10.50;6.60;;;19.00;1.00;;;;;;5070866;28;20165;-70
2023/05/05 09:44:45;;;;;;;7.15;6.45;;;19.40;1.00;;;;;;5071847;28;20262;-69
2023/05/05 09:47:11;;;;;;;11.90;6.63;;;19.60;1.00;;;;;;5072261;28;20269;-70
2023/05/05 09:49:37;;;;;;;9.55;6.93;;;19.50;1.00;;;;;;5057470;28;20257;-71
2023/05/05 09:52:14;;;;;;;10.88;6.82;;;19.70;1.00;;;;;;5057800;28;20180;-71
2023/05/05 09:54:41;;;;;;;7.60;5.82;;;20.00;1.00;;;;;;5057578;28;20176;-72
2023/05/05 09:57:07;;;;;;;11.27;6.00;;;20.20;1.00;;;;;;5075878;28;20523;-69
2023/05/05 09:59:33;;;;;;;10.75;6.53;;;20.20;1.00;;;;;;5075512;28;20176;-71
2023/05/05 10:02:12;;;;;;;10.07;4.95;;;20.30;1.00;;;;;;5075144;28;20520;-71
2023/05/05 10:04:40;;;;;;;9.52;4.72;;;20.60;1.00;;;;;;5075608;28;20180;-71
2023/05/05 10:07:23;;;;;;;4.90;4.20;;;20.70;1.00;;;;;;5076025;28;20620;-70
2023/05/05 10:09:49;;;;;;;7.88;4.18;;;20.60;1.00;;;;;;5075185;28;20570;-72
2023/05/05 10:12:14;;;;;;;7.18;4.68;;;21.20;1.00;;;;;;5074752;28;20165;-71
2023/05/05 10:14:41;;;;;;;8.88;4.97;;;21.50;1.00;;;;;;5075593;28;20175;-71
2023/05/05 10:17:08;;;;;;;7.95;4.38;;;22.10;1.00;;;;;;5057381;28;20173;-72
2023/05/05 10:19:36;;;;;;;11.32;4.07;;;22.70;99.90;;;;;;5074957;28;20270;-72
2023/05/05 10:22:02;;;;;;;6.78;3.90;;;22.70;99.90;;;;;;5074869;28;20173;-72
2023/05/05 10:24:50;;;;;;;6.88;3.97;;;22.90;1.00;;;;;;5057344;28;20218;-72
2023/05/05 10:27:21;;;;;;;5.32;3.72;;;23.80;1.00;;;;;;5074758;28;20656;-72
2023/05/05 10:30:06;;;;;;;6.05;3.40;;;24.60;1.00;;;;;;5075556;28;20281;-71
2023/05/05 10:32:52;;;;;;;5.50;3.28;;;24.40;99.90;;;;;;5075165;28;20212;-73
2023/05/05 10:35:23;;;;;;;4.72;3.47;;;23.90;1.00;;;;;;5075297;28;20218;-71
2023/05/05 10:37:49;;;;;;;5.70;3.42;;;23.90;1.00;;;;;;5075432;28;20255;-71
2023/05/05 10:40:16;;;;;;;10.13;3.75;;;23.70;1.00;;;;;;5074450;28;20249;-71
2023/05/05 10:42:42;;;;;;;8.68;3.67;;;23.30;1.00;;;;;;5074548;28;20272;-70
2023/05/05 10:45:08;;;;;;;5.82;3.65;;;22.50;1.00;;;;;;5075064;28;20636;-71
2023/05/05 10:47:36;;;;;;;5.72;3.65;;;21.80;1.00;;;;;;5056082;28;20184;-70
2023/05/05 10:50:25;;;;;;;8.77;3.97;;;21.20;1.00;;;;;;5074425;28;20205;-69
2023/05/05 10:53:17;;;;;;;7.10;4.03;;;20.60;1.00;;;;;;5056128;28;20204;-71
2023/05/05 10:56:11;;;;;;;5.13;4.15;;;20.40;1.00;;;;;;5074357;28;20176;-70
2023/05/05 10:58:40;;;;;;;5.50;4.07;;;20.20;1.00;;;;;;5073979;28;20172;-70
2023/05/05 11:01:06;;;;;;;8.52;3.70;;;20.10;1.00;;;;;;5074245;28;20177;-70
2023/05/05 11:03:32;;;;;;;9.80;4.45;;;20.20;1.00;;;;;;5074634;28;20184;-70
2023/05/05 11:06:03;;;;;;;8.80;3.92;;;19.50;1.00;;;;;;5074263;28;20218;-70
2023/05/05 11:08:34;;;;;;;11.82;3.78;;;19.50;1.00;;;;;;5074532;28;20280;-71
2023/05/05 11:11:01;;;;;;;10.30;4.70;;;19.70;1.00;;;;;;5055317;28;20239;-71
2023/05/05 11:13:27;;;;;;;9.07;3.80;;;19.30;1.00;;;;;;5074948;28;20172;-72
2023/05/05 11:15:55;;;;;;;9.25;4.22;;;19.30;1.00;;;;;;5074457;28;20172;-70
2023/05/05 11:18:36;;;;;;;9.02;4.05;;;19.30;1.00;;;;;;5074403;28;20220;-71
2023/05/05 11:21:03;;;;;;;7.72;4.50;;;19.40;1.00;;;;;;5073858;28;20172;-71
2023/05/05 11:23:29;;;;;;;11.85;4.60;;;19.20;1.00;;;;;;5074015;28;20165;-73
2023/05/05 11:25:56;;;;;;;7.25;4.50;;;19.10;1.00;;;;;;5073772;28;20169;-70
2023/05/05 11:28:24;;;;;;;8.15;4.20;;;19.20;1.00;;;;;;5074060;28;20169;-70
2023/05/05 11:30:57;;;;;;;10.57;4.00;;;19.50;1.00;;;;;;5074070;28;20231;-70
2023/05/05 11:33:29;;;;;;;7.82;3.40;;;20.00;1.00;;;;;;5073992;28;20196;-70
2023/05/05 11:35:59;;;;;;;8.45;3.78;;;20.30;1.00;;;;;;5056037;28;20172;-70
2023/05/05 11:38:31;;;;;;;7.57;3.47;;;20.40;1.00;;;;;;5055669;28;20180;-70
2023/05/05 11:41:11;;;;;;;6.10;3.90;;;20.80;1.00;;;;;;5073750;28;20172;-69
2023/05/05 11:43:37;;;;;;;12.00;4.18;;;20.70;1.00;;;;;;5073815;28;20168;-70
2023/05/05 11:46:14;;;;;;;6.38;3.25;;;21.30;1.00;;;;;;5073455;28;20250;-70
2023/05/05 11:48:47;;;;;;;6.78;2.85;;;21.70;1.00;;;;;;5073117;28;20179;-70
2023/05/05 11:51:15;;;;;;;4.72;2.47;;;21.90;99.90;;;;;;5073455;28;20216;-71
2023/05/05 11:53:48;;;;;;;6.18;2.88;;;22.00;1.00;;;;;;5073604;28;20268;-70
2023/05/05 11:56:19;;;;;;;4.25;2.08;;;22.00;1.00;;;;;;5072763;28;20628;-71
2023/05/05 11:58:45;;;;;;;5.95;2.08;;;21.70;1.00;;;;;;5073587;28;20184;-71
2023/05/05 12:01:14;;;;;;;4.78;1.60;;;22.20;99.90;;;;;;5073815;28;20191;-71
2023/05/05 12:03:40;;;;;;;3.45;1.52;;;22.70;99.90;;;;;;5073409;28;20212;-70
2023/05/05 12:06:07;;;;;;;3.28;1.60;;;23.20;1.00;;;;;;5072170;28;20615;-71
2023/05/05 12:08:38;;;;;;;4.10;2.20;;;23.00;1.00;;;;;;5072613;28;20169;-70
2023/05/05 12:11:07;;;;;;;5.20;2.42;;;22.90;99.90;;;;;;5072024;28;20281;-70
2023/05/05 12:13:32;;;;;;;5.15;2.15;;;23.10;99.90;;;;;;5072963;28;20666;-71
2023/05/05 12:16:12;;;;;;;5.07;1.90;;;22.60;1.00;;;;;;5073325;28;20196;-70
2023/05/05 12:18:38;;;;;;;4.10;2.35;;;21.60;99.90;;;;;;5072148;28;20353;-71
2023/05/05 12:21:18;;;;;;;7.20;2.10;;;21.50;1.00;;;;;;5072722;28;20693;-69
2023/05/05 12:23:44;;;;;;;9.30;2.42;;;21.20;1.00;;;;;;5072366;28;20168;-70
2023/05/05 12:26:26;;;;;;;5.63;1.95;;;21.20;99.90;;;;;;5072906;28;20180;-71
2023/05/05 12:28:53;;;;;;;3.65;1.80;;;20.90;99.90;;;;;;5072734;28;20306;-71
2023/05/05 12:31:18;;;;;;;4.80;2.00;;;20.70;1.00;;;;;;5072998;28;20216;-71
2023/05/05 12:33:45;;;;;;;3.83;2.17;;;20.50;1.00;;;;;;5072274;28;20165;-72
2023/05/05 12:36:11;;;;;;;4.90;2.42;;;20.20;1.00;;;;;;5073024;28;20225;-71
2023/05/05 12:38:37;;;;;;;5.05;1.73;;;20.10;1.00;;;;;;5072452;28;20247;-72
2023/05/05 12:41:03;;;;;;;5.57;1.90;;;19.60;1.00;;;;;;5072221;28;20227;-71
2023/05/05 12:43:33;;;;;;;5.22;1.92;;;19.60;1.00;;;;;;5072346;28;20196;-73
2023/05/05 12:46:07;;;;;;;5.03;2.00;;;19.70;1.00;;;;;;5073198;28;20173;-69
2023/05/05 12:48:34;;;;;;;2.30;1.60;;;20.00;1.00;;;;;;5072046;28;20207;-70
2023/05/05 12:51:36;;;;;;;3.17;1.73;;;20.40;1.00;;;;;;5072511;28;20243;-70